createdAt,value
2022-08-17T00:04:23.525Z,14.3
2022-08-17T00:09:21.758Z,14.2
2022-08-17T00:14:20.104Z,14.4
2022-08-17T00:19:18.262Z,14.2
2022-08-17T00:24:16.429Z,14.1
2022-08-17T00:29:14.884Z,14.1
2022-08-17T00:34:12.936Z,13.9
2022-08-17T00:39:10.937Z,13.9
2022-08-17T00:44:08.910Z,13.8
2022-08-17T00:49:06.960Z,13.7
2022-08-17T00:54:05.396Z,13.6
2022-08-17T00:59:04.009Z,13.6
2022-08-17T01:04:02.308Z,13.6
2022-08-17T01:09:00.359Z,13.5
2022-08-17T01:13:58.758Z,13.4
2022-08-17T01:18:57.102Z,13.4
2022-08-17T01:23:55.403Z,13.3
2022-08-17T01:28:55.218Z,13.2
2022-08-17T01:33:51.662Z,13.2
2022-08-17T01:38:49.737Z,13.2
2022-08-17T01:43:47.791Z,13.1
2022-08-17T01:48:45.949Z,13.1
2022-08-17T01:53:44.123Z,13
2022-08-17T01:58:42.065Z,13
2022-08-17T02:03:40.264Z,12.9
2022-08-17T02:08:39.400Z,12.9
2022-08-17T02:13:36.487Z,12.9
2022-08-17T02:18:34.632Z,12.9
2022-08-17T02:23:32.603Z,13
2022-08-17T02:28:30.764Z,13.1
2022-08-17T02:33:42.319Z,13.1
2022-08-17T02:38:27.362Z,13
2022-08-17T02:43:25.765Z,13
2022-08-17T02:48:28.001Z,12.8
2022-08-17T02:53:21.861Z,12.8
2022-08-17T02:58:32.093Z,12.6
2022-08-17T03:03:18.019Z,12.6
2022-08-17T03:08:16.336Z,12.6
2022-08-17T03:13:14.552Z,12.6
2022-08-17T03:18:19.399Z,12.7
2022-08-17T03:23:11.179Z,12.6
2022-08-17T03:28:09.247Z,12.6
2022-08-17T03:33:07.430Z,12.5
2022-08-17T03:38:05.607Z,12.4
2022-08-17T03:43:04.031Z,12.5
2022-08-17T03:48:02.641Z,12.6
2022-08-17T03:53:01.392Z,13.2
2022-08-17T03:58:00.305Z,14
2022-08-17T04:02:59.003Z,14.4
2022-08-17T04:07:57.338Z,14.6
2022-08-17T04:12:56.398Z,15.2
2022-08-17T04:17:55.754Z,16.9
2022-08-17T04:22:55.973Z,19.3
2022-08-17T04:27:55.819Z,20.8
2022-08-17T04:33:10.851Z,21.8
2022-08-17T04:37:53.346Z,21.7
2022-08-17T04:43:00.084Z,22.6
2022-08-17T04:47:53.595Z,23.2
2022-08-17T04:52:51.852Z,22.7
2022-08-17T04:57:49.720Z,22.4
2022-08-17T05:02:49.709Z,23
2022-08-17T05:07:47.312Z,23.8
2022-08-17T05:12:46.693Z,24.7
2022-08-17T05:17:45.130Z,24.7
2022-08-17T05:22:44.003Z,25.8
2022-08-17T05:27:42.740Z,26.2
2022-08-17T05:32:40.814Z,26.2
2022-08-17T05:37:39.368Z,26.9
2022-08-17T05:42:38.205Z,27.6
2022-08-17T05:47:37.041Z,28.3
2022-08-17T05:52:35.056Z,28.4
2022-08-17T05:57:33.535Z,29
2022-08-17T06:02:32.581Z,30.7
2022-08-17T06:07:31.122Z,31.1
2022-08-17T06:12:29.269Z,31
2022-08-17T06:17:28.349Z,30.8
2022-08-17T06:22:26.839Z,31.5
2022-08-17T06:27:26.169Z,32
2022-08-17T06:32:24.670Z,31.6
2022-08-17T06:37:23.336Z,32.5
2022-08-17T06:42:54.220Z,32.5
2022-08-17T06:47:27.895Z,33
2022-08-17T06:52:37.156Z,33.1
2022-08-17T06:57:17.862Z,33.8
2022-08-17T07:02:16.363Z,33.9
2022-08-17T07:07:15.019Z,34.2
2022-08-17T07:12:13.316Z,34
2022-08-17T07:17:11.693Z,35.7
2022-08-17T07:22:10.959Z,35.3
2022-08-17T07:27:09.439Z,36.2
2022-08-17T07:32:07.912Z,36.4
2022-08-17T07:37:06.481Z,35.9
2022-08-17T07:42:05.346Z,37.5
2022-08-17T07:47:03.723Z,37.9
2022-08-17T07:52:23.890Z,36.9
2022-08-17T07:57:02.446Z,38.3
2022-08-17T08:02:01.105Z,37.9
2022-08-17T08:07:00.182Z,38.9
2022-08-17T08:11:58.873Z,39
2022-08-17T08:16:57.389Z,39.5
2022-08-17T08:27:03.234Z,40
2022-08-17T08:32:00.806Z,40.2
2022-08-17T08:37:16.157Z,39.7
2022-08-17T08:41:58.135Z,40.4
2022-08-17T08:46:56.299Z,39
2022-08-17T08:51:54.895Z,40.1
2022-08-17T08:57:19.719Z,40.7
2022-08-17T09:01:51.914Z,40.7
2022-08-17T09:06:50.078Z,41.2
2022-08-17T09:12:01.643Z,41.5
2022-08-17T09:16:46.862Z,41.8
2022-08-17T09:21:48.124Z,42.6
2022-08-17T09:26:43.621Z,42.7
2022-08-17T09:31:41.860Z,41.1
2022-08-17T09:36:39.704Z,41.7
2022-08-17T09:41:37.443Z,40.5
2022-08-17T09:46:37.463Z,40.7
2022-08-17T09:51:34.720Z,38.8
2022-08-17T09:56:32.780Z,40.8
2022-08-17T10:01:30.406Z,41.3
2022-08-17T10:06:27.513Z,39.3
2022-08-17T10:11:33.364Z,40
2022-08-17T10:16:24.595Z,41.1
2022-08-17T10:21:22.975Z,40.2
2022-08-17T10:26:20.813Z,41.2
2022-08-17T10:31:34.054Z,36.7
2022-08-17T10:36:16.996Z,40.2
2022-08-17T10:41:16.116Z,40.2
2022-08-17T10:46:27.701Z,39.8
2022-08-17T10:51:09.785Z,36.3
2022-08-17T10:56:10.833Z,39.4
2022-08-17T11:01:09.300Z,40.1
2022-08-17T11:06:08.044Z,39.1
2022-08-17T11:11:06.259Z,38.8
2022-08-17T11:16:07.757Z,39.1
2022-08-17T11:21:02.655Z,39.8
2022-08-17T11:25:58.231Z,35.8
2022-08-17T11:30:54.577Z,35.7
2022-08-17T11:35:54.759Z,37.9
2022-08-17T11:40:53.604Z,38.6
2022-08-17T11:45:53.542Z,40.6
2022-08-17T11:50:52.260Z,40.3
2022-08-17T11:55:45.128Z,34
2022-08-17T12:00:40.602Z,32.7
2022-08-17T12:05:37.936Z,31.2
2022-08-17T12:10:36.061Z,31.1
2022-08-17T12:15:39.731Z,38
2022-08-17T12:20:39.971Z,39.4
2022-08-17T12:25:37.864Z,38.4
2022-08-17T12:30:35.587Z,36.5
2022-08-17T12:35:33.302Z,37.7
2022-08-17T12:40:31.531Z,38.2
2022-08-17T12:45:30.463Z,39.2
2022-08-17T12:50:28.151Z,33.8
2022-08-17T12:55:19.521Z,29.9
2022-08-17T13:00:16.549Z,29.7
2022-08-17T13:05:14.308Z,29.7
2022-08-17T13:10:12.528Z,29.3
2022-08-17T13:15:11.025Z,30.9
2022-08-17T13:20:11.926Z,34.4
2022-08-17T13:25:09.867Z,32.7
2022-08-17T13:30:06.135Z,30.3
2022-08-17T13:35:13.281Z,31
2022-08-17T13:40:03.124Z,33.4
2022-08-17T13:45:01.256Z,32.3
2022-08-17T13:49:58.633Z,31.1
2022-08-17T13:54:55.742Z,31.2
2022-08-17T13:59:55.699Z,31.8
2022-08-17T14:04:51.098Z,30.3
2022-08-17T14:09:48.404Z,29.9
2022-08-17T14:14:46.135Z,29.6
2022-08-17T14:19:43.146Z,27.9
2022-08-17T14:24:44.571Z,27.9
2022-08-17T14:29:38.775Z,28.4
2022-08-17T14:34:37.244Z,28.7
2022-08-17T14:39:35.320Z,29
2022-08-17T14:44:33.337Z,29
2022-08-17T14:49:31.472Z,29.1
2022-08-17T14:54:33.735Z,29
2022-08-17T14:59:27.345Z,28.2
2022-08-17T15:04:25.006Z,28.1
2022-08-17T15:09:22.706Z,28
2022-08-17T15:14:20.446Z,27.3
2022-08-17T15:19:18.322Z,27.2
2022-08-17T15:24:16.074Z,26.8
2022-08-17T15:29:14.022Z,26.5
2022-08-17T15:34:11.912Z,26.3
2022-08-17T15:39:09.880Z,25.9
2022-08-17T15:44:07.841Z,26
2022-08-17T15:49:05.891Z,25.6
2022-08-17T15:54:04.342Z,25.4
2022-08-17T15:59:05.276Z,25.1
2022-08-17T16:04:05.344Z,24.9
2022-08-17T16:09:00.097Z,24.4
2022-08-17T16:13:57.771Z,24
2022-08-17T16:18:58.482Z,23.6
2022-08-17T16:23:52.949Z,23.2
2022-08-17T16:28:50.832Z,22.9
2022-08-17T16:33:58.510Z,22.7
2022-08-17T16:38:46.666Z,22.5
2022-08-17T16:43:44.475Z,22.3
2022-08-17T16:48:42.405Z,22
2022-08-17T16:53:40.216Z,21.8
2022-08-17T16:58:38.046Z,21.5
2022-08-17T17:03:36.988Z,21.3
2022-08-17T17:08:34.597Z,21
2022-08-17T17:13:32.507Z,20.6
2022-08-17T17:18:30.385Z,20.4
2022-08-17T17:23:28.234Z,20.2
2022-08-17T17:28:26.109Z,19.9
2022-08-17T17:33:23.921Z,19.7
2022-08-17T17:38:21.710Z,19.5
2022-08-17T17:43:38.083Z,19.3
2022-08-17T17:48:17.733Z,19.2
2022-08-17T17:53:15.667Z,19
2022-08-17T17:58:13.572Z,18.9
2022-08-17T18:03:11.346Z,18.7
2022-08-17T18:08:09.482Z,18.8
2022-08-17T18:13:07.458Z,18.7
2022-08-17T18:18:05.638Z,18.4
2022-08-17T18:23:03.770Z,18.3
2022-08-17T18:28:01.727Z,18
2022-08-17T18:32:59.616Z,17.9
2022-08-17T18:37:57.701Z,17.9
2022-08-17T18:42:55.871Z,17.8
2022-08-17T18:47:53.985Z,17.8
2022-08-17T18:52:52.092Z,17.7
2022-08-17T18:57:50.279Z,17.5
2022-08-17T19:02:47.990Z,17.4
2022-08-17T19:07:46.080Z,17.4
2022-08-17T19:12:44.041Z,17.2
2022-08-17T19:17:42.132Z,17.1
2022-08-17T19:22:40.155Z,17.1
2022-08-17T19:27:41.608Z,17
2022-08-17T19:32:35.996Z,16.9
2022-08-17T19:37:34.101Z,16.7
2022-08-17T19:42:32.096Z,16.5
2022-08-17T19:47:51.436Z,16.4
2022-08-17T19:52:28.352Z,16.3
2022-08-17T19:57:26.327Z,16.1
2022-08-17T20:02:24.409Z,16.1
2022-08-17T20:07:22.627Z,16
2022-08-17T20:12:20.921Z,16
2022-08-17T20:17:19.007Z,16
2022-08-17T20:22:17.418Z,15.9
2022-08-17T20:27:15.453Z,15.8
2022-08-17T20:32:13.714Z,15.8
2022-08-17T20:37:12.119Z,15.9
2022-08-17T20:42:10.486Z,15.9
2022-08-17T20:47:08.632Z,15.9
2022-08-17T20:52:06.808Z,15.8
2022-08-17T20:57:06.189Z,15.7
2022-08-17T21:02:03.563Z,15.6
2022-08-17T21:07:02.243Z,15.5
2022-08-17T21:12:03.540Z,15.5
2022-08-17T21:17:02.781Z,15.5
2022-08-17T21:22:00.613Z,15.4
2022-08-17T21:26:59.236Z,15.3
2022-08-17T21:31:57.534Z,15.3
2022-08-17T21:36:55.830Z,15.2
2022-08-17T21:41:53.978Z,15.1
2022-08-17T21:46:52.117Z,15.1
2022-08-17T21:51:50.038Z,15
2022-08-17T21:56:48.147Z,14.9
2022-08-17T22:01:46.356Z,14.9
2022-08-17T22:06:52.455Z,15
2022-08-17T22:11:42.894Z,15.1
2022-08-17T22:16:41.124Z,15
2022-08-17T22:21:39.181Z,15
2022-08-17T22:26:37.465Z,14.8
2022-08-17T22:31:35.553Z,14.8
2022-08-17T22:36:33.840Z,14.8
2022-08-17T22:41:31.726Z,14.5
2022-08-17T22:46:29.589Z,14.4
2022-08-17T22:51:27.655Z,14.4
2022-08-17T22:56:25.922Z,14.4
2022-08-17T23:01:23.955Z,14.3
2022-08-17T23:06:22.102Z,14.2
2022-08-17T23:11:20.420Z,14.2
2022-08-17T23:16:18.675Z,14.1
2022-08-17T23:21:24.972Z,14.1
2022-08-17T23:26:15.249Z,13.9
2022-08-17T23:31:13.840Z,13.9
2022-08-17T23:36:11.980Z,13.8
2022-08-17T23:41:10.312Z,13.8
2022-08-17T23:46:08.545Z,13.8
2022-08-17T23:51:06.510Z,13.7
2022-08-17T23:56:09.932Z,13.7
